Flight Track Log - Related Links

Times and Time Zones

All times are in EDT time to prevent confusion due to time zone crossing. See the JBU1282 flight status page for this flight to view local times or setup timezone preferences in your user account.

Time Position Orientation Groundspeed Altitude Reporting Facility
EDT Latitude Longitude Course Direction KTS MPH feet Rate Location/Type
07:24PM 37.4833 -77.2667 38° Northeast 194 223 2,000  Level Potomac TRACON
07:25PM 37.4967 -77.2383 59° Northeast 221 254 2,700 2,258 Climbing Washington Center
07:26PM 37.5372 -77.1633 56° Northeast 247 284 5,500 3,176 Climbing Washington Center
07:27PM 37.7620 -77.0380 38° Northeast  Level FlightAware Approximate
07:27PM 37.5636 -77.0694 70° East 257 296 9,000  Level Washington Center
07:28PM 37.8531 -76.9469 38° Northeast  Level FlightAware Approximate
07:28PM 37.6103 -76.9864 55° Northeast 281 323 11,800  Level Washington Center
07:29PM 37.9443 -76.8557 38° Northeast  Level FlightAware Approximate
07:29PM 37.6986 -76.9303 27° Northeast 300 345 13,500  Level Washington Center
07:30PM 37.7969 -76.8978 15° North 342 394 16,000 2,521 Climbing Washington Center
07:31PM 37.9011 -76.9128 354° North 347 399 18,500 2,311 Climbing Washington Center
07:32PM 38.0094 -76.9306 353° North 364 419 20,700 1,240 Climbing Washington Center
07:33PM 38.1122 -76.8689 25° Northeast 376 433 21,000 353 Climbing Washington Center
07:34PM 38.1944 -76.7833 39° Northeast 403 464 21,400 1,008 Climbing Washington Center
07:35PM 38.2953 -76.7028 32° Northeast 416 479 23,000 1,736 Climbing Washington Center
07:36PM 38.4086 -76.6197 30° Northeast 416 479 24,900 1,008 Climbing Washington Center
07:37PM 38.5197 -76.5336 31° Northeast 439 505 25,000 857 Climbing Washington Center
07:38PM 38.6311 -76.4447 32° Northeast 457 526 26,600 1,475 Climbing Washington Center
07:39PM 38.7419 -76.3581 31° Northeast 469 540 28,000 1,664 Climbing Washington Center
07:40PM 38.8553 -76.2686 32° Northeast 474 545 29,900 1,513 Climbing Washington Center
07:41PM 38.9642 -76.1708 35° Northeast 474 545 31,000 1,091 Climbing Washington Center
07:42PM 39.0606 -76.0486 45° Northeast 474 545 32,100 992 Climbing Washington Center
07:43PM 39.1567 -75.9289 44° Northeast 474 545 33,000 454 Climbing Washington Center
07:44PM 39.2550 -75.8061 44° Northeast 474 545 33,000  Level Washington Center
07:45PM 39.3508 -75.6800 45° Northeast 484 557 33,000  Level Washington Center
07:46PM 39.4511 -75.5511 45° Northeast 489 563 33,000  Level Washington Center
07:48PM 39.6539 -75.2847 45° Northeast 510 587 33,000  Level New York Center
07:49PM 39.7444 -75.1500 49° Northeast 510 587 33,000  Level New York Center
07:50PM 39.8414 -75.0128 47° Northeast 504 580 33,000  Level New York Center
07:51PM 39.9314 -74.8831 48° Northeast 497 572 33,000  Level New York Center
07:52PM 40.0297 -74.7478 46° Northeast 497 572 33,000  Level New York Center
07:53PM 40.1219 -74.6119 48° Northeast 503 579 33,000  Level New York Center
07:54PM 40.2003 -74.5075 46° Northeast 503 579 33,000 -295 Level New York Center
07:55PM 40.3150 -74.3750 41° Northeast 503 579 32,400 -1,008 Descending New York Center
07:56PM 40.4225 -74.2578 40° Northeast 498 573 31,000 -1,385 Descending New York Center
07:57PM 40.5236 -74.1483 39° Northeast 488 562 29,700 -1,250 Descending New York Center
07:58PM 40.5842 -73.9956 62° Northeast 456 525 28,500 -1,328 Descending New York Center
07:59PM 40.6014 -73.8186 83° East 434 499 27,000 -1,299 Descending New York Center
08:01PM 40.6350 -73.5883 79° East 452 520 25,100 -755 Descending Boston Center
08:02PM 40.7583 -73.4881 32° Northeast 465 535 25,000 -48 Descending Boston Center
08:03PM 40.8717 -73.4183 25° Northeast 456 525 25,000 -585 Level Boston Center
08:04PM 40.9536 -73.2994 48° Northeast 453 521 23,800 -976 Descending Boston Center
08:05PM 41.0356 -73.1781 48° Northeast 448 516 23,000 -322 Descending Boston Center
08:06PM 41.1492 -73.0144 47° Northeast 441 507 23,000  Level Boston Center
08:07PM 41.2400 -72.8625 51° Northeast 440 506 23,000  Level Boston Center
08:08PM 41.2853 -72.7303 65° Northeast 441 507 23,000  Level Boston Center
08:09PM 41.3372 -72.5814 65° Northeast 440 506 23,000  Level Boston Center
08:10PM 41.3872 -72.4347 66° East 437 503 23,000 -194 Level Boston Center
08:11PM 41.4361 -72.2878 66° East 436 502 22,600 -787 Descending Boston Center
08:12PM 41.4953 -72.1139 66° East 432 497 21,400 -1,623 Descending Boston Center
08:13PM 41.5433 -71.9736 65° Northeast 420 483 19,300 -2,033 Descending Boston Center
08:14PM 41.5883 -71.8400 66° East 378 435 17,300 -1,887 Descending Boston Center
08:15PM 41.6283 -71.7197 66° East 357 411 15,400 -1,872 Descending Boston Center
08:16PM 41.6697 -71.5936 66° East 352 405 13,400 -1,835 Descending Boston Center
08:17PM 41.7075 -71.4817 66° East 338 389 11,700 -1,190 Descending Boston Center
08:18PM 41.7567 -71.3750 58° Northeast 319 367 11,000 -492 Descending Boston Center
08:19PM 41.8175 -71.2925 45° Northeast 314 361 10,700 -864 Descending Boston Center
08:20PM 41.8881 -71.2344 31° Northeast 303 349 9,200 -1,584 Descending Boston Center
08:22PM 41.9694 -71.1964 19° North 293 337 7,400 -1,785 Descending Boston Center
08:23PM 42.0411 -71.1628 19° North 276 318 5,600 -1,268 Descending Boston Center
08:24PM 42.1086 -71.1306 20° North 258 297 4,800 -871 Descending Boston Center
08:25PM 42.1717 -71.0989 20° North 228 262 3,800 -1,082 Descending Boston Center
08:26PM 42.2303 -71.0694 20° North 227 261 2,600 -1,091 Descending Boston Center
08:27PM 42.2844 -71.0461 18° North 208 239 1,600 -992 Descending Boston Center
08:28PM 42.3342 -71.0197 21° North 190 219 600 10,272 Descending Boston Center
08:29PM 42.3708 -71.0017 20° North 160 184 23,000 21,000 Climbing Boston Center

Login

Don't have an account? Register now (free) for customized features, flight alerts, and more!